KBMT/BMT METAR and TAF weather

Enter ICAO airport designator
Station Type Date Time Source
KBMT METAR 2019/10/18 06:15 UTC NOAA

KBMT 180615Z AUTO 03003KT 10SM CLR 15/11 A2992 RMK AO2 T01470112 TSNO


Station Type Date Time Source
KBMT Decoded METAR 2019/10/18 06:15 UTC NOAA

Station name not available
Oct 18, 2019 - 02:15 AM EDT / 2019.10.18 0615 UTC
Wind: from the NNE (030 degrees) at 3 MPH (3 KT):0
Visibility: 10 mile(s):0
Sky conditions: clear
Temperature: 58.5 F (14.7 C)
Dew Point: 52.2 F (11.2 C)
Relative Humidity: 79%
Pressure (altimeter): 29.92 in. Hg (1013 hPa)
ob: KBMT 180615Z AUTO 03003KT 10SM CLR 15/11 A2992 RMK AO2 T01470112 TSNO
cycle: 6

Station Type Date Time Source
KBMT TAF UTC NOAA

Error!

Example: see airport list